createdAt,value
2022-09-15T00:01:26.846Z,79.03
2022-09-15T00:03:55.119Z,79.11
2022-09-15T00:06:23.395Z,79.21
2022-09-15T00:08:51.749Z,79.20
2022-09-15T00:11:22.366Z,79.28
2022-09-15T00:13:51.633Z,79.48
2022-09-15T00:16:22.747Z,79.67
2022-09-15T00:18:51.029Z,79.68
2022-09-15T00:21:21.831Z,79.66
2022-09-15T00:23:50.863Z,79.93
2022-09-15T00:26:22.284Z,80.02
2022-09-15T00:28:51.043Z,80.01
2022-09-15T00:31:22.179Z,80.19
2022-09-15T00:33:52.545Z,80.19
2022-09-15T00:36:21.538Z,80.23
2022-09-15T00:38:49.955Z,80.25
2022-09-15T00:41:20.068Z,80.38
2022-09-15T00:43:51.562Z,80.47
2022-09-15T00:46:22.552Z,80.34
2022-09-15T00:48:56.353Z,80.32
2022-09-15T00:51:30.408Z,80.60
2022-09-15T00:53:59.062Z,80.71
2022-09-15T00:56:28.279Z,80.65
2022-09-15T00:59:00.737Z,80.70
2022-09-15T01:01:31.414Z,80.72
2022-09-15T01:04:00.088Z,80.72
2022-09-15T01:06:33.142Z,80.72
2022-09-15T01:09:06.131Z,80.68
2022-09-15T01:11:35.848Z,80.97
2022-09-15T01:14:05.100Z,81.05
2022-09-15T01:16:45.185Z,81.11
2022-09-15T01:19:31.724Z,81.02
2022-09-15T01:22:09.302Z,81.00
2022-09-15T01:24:45.710Z,81.02
2022-09-15T01:27:43.009Z,81.27
2022-09-15T01:30:13.668Z,81.27
2022-09-15T01:33:06.233Z,81.26
2022-09-15T01:35:54.691Z,81.23
2022-09-15T01:38:29.005Z,81.48
2022-09-15T01:41:08.581Z,81.19
2022-09-15T01:43:41.516Z,81.22
2022-09-15T01:46:11.812Z,81.31
2022-09-15T01:48:41.652Z,81.25
2022-09-15T01:51:10.539Z,81.23
2022-09-15T01:53:38.999Z,81.33
2022-09-15T01:56:08.729Z,81.36
2022-09-15T01:58:38.243Z,81.27
2022-09-15T02:01:11.199Z,81.43
2022-09-15T02:03:43.743Z,81.39
2022-09-15T02:06:17.255Z,81.37
2022-09-15T02:08:53.143Z,81.48
2022-09-15T02:11:25.385Z,81.56
2022-09-15T02:14:00.271Z,81.55
2022-09-15T02:16:32.433Z,81.78
2022-09-15T02:19:10.252Z,81.71
2022-09-15T02:21:53.117Z,81.81
2022-09-15T02:24:27.353Z,81.87
2022-09-15T02:26:55.833Z,81.88
2022-09-15T02:29:26.182Z,81.72
2022-09-15T02:31:57.109Z,81.68
2022-09-15T02:34:27.168Z,81.97
2022-09-15T02:36:55.816Z,81.96
2022-09-15T02:39:29.296Z,82.00
2022-09-15T02:41:59.242Z,81.89
2022-09-15T02:44:30.632Z,81.94
2022-09-15T02:47:01.745Z,82.18
2022-09-15T02:49:30.223Z,82.20
2022-09-15T02:51:59.047Z,82.21
2022-09-15T02:54:27.869Z,82.32
2022-09-15T02:56:59.969Z,82.42
2022-09-15T02:59:49.263Z,82.32
2022-09-15T03:02:18.082Z,82.42
2022-09-15T03:04:46.989Z,82.50
2022-09-15T03:07:15.552Z,82.58
2022-09-15T03:09:43.954Z,82.75
2022-09-15T03:12:12.633Z,82.79
2022-09-15T03:14:41.234Z,82.83
2022-09-15T03:17:09.406Z,82.90
2022-09-15T03:19:37.882Z,82.85
2022-09-15T03:22:06.560Z,82.73
2022-09-15T03:24:34.953Z,82.83
2022-09-15T03:27:03.660Z,82.68
2022-09-15T03:29:32.504Z,82.67
2022-09-15T03:32:00.951Z,82.88
2022-09-15T03:34:29.144Z,82.84
2022-09-15T03:36:57.384Z,82.85
2022-09-15T03:39:26.546Z,82.92
2022-09-15T03:41:56.713Z,82.83
2022-09-15T03:44:25.435Z,83.03
2022-09-15T03:46:53.769Z,83.02
2022-09-15T03:49:22.570Z,82.99
2022-09-15T03:51:51.182Z,83.18
2022-09-15T03:54:19.730Z,83.10
2022-09-15T03:56:48.502Z,83.16
2022-09-15T03:59:18.406Z,83.18
2022-09-15T04:01:47.191Z,83.14
2022-09-15T04:04:15.586Z,83.34
2022-09-15T04:06:44.439Z,83.33
2022-09-15T04:09:13.325Z,83.48
2022-09-15T04:11:42.150Z,83.28
2022-09-15T04:14:10.558Z,83.48
2022-09-15T04:16:38.836Z,83.47
2022-09-15T04:19:07.556Z,83.56
2022-09-15T04:21:36.590Z,83.75
2022-09-15T04:24:05.566Z,83.55
2022-09-15T04:26:36.159Z,83.66
2022-09-15T04:29:11.032Z,83.44
2022-09-15T04:31:39.435Z,83.51
2022-09-15T04:34:08.287Z,83.33
2022-09-15T04:36:36.597Z,83.17
2022-09-15T04:39:05.938Z,82.77
2022-09-15T04:41:34.171Z,82.78
2022-09-15T04:44:03.028Z,82.53
2022-09-15T04:46:32.046Z,82.36
2022-09-15T04:49:00.369Z,82.19
2022-09-15T04:51:28.577Z,82.14
2022-09-15T04:53:57.226Z,81.98
2022-09-15T04:56:26.789Z,81.80
2022-09-15T04:59:03.561Z,81.78
2022-09-15T05:01:35.667Z,81.59
2022-09-15T05:04:05.295Z,81.47
2022-09-15T05:06:35.928Z,81.44
2022-09-15T05:09:10.309Z,81.19
2022-09-15T05:11:39.047Z,81.19
2022-09-15T05:14:09.743Z,80.91
2022-09-15T05:16:39.622Z,80.75
2022-09-15T05:19:09.559Z,80.59
2022-09-15T05:21:38.025Z,80.38
2022-09-15T05:24:07.770Z,80.13
2022-09-15T05:26:36.257Z,80.17
2022-09-15T05:29:06.096Z,80.00
2022-09-15T05:31:35.140Z,79.88
2022-09-15T05:34:08.627Z,79.78
2022-09-15T05:36:37.219Z,79.69
2022-09-15T05:39:06.375Z,79.57
2022-09-15T05:41:34.742Z,78.96
2022-09-15T05:44:03.405Z,78.83
2022-09-15T05:46:32.122Z,78.56
2022-09-15T05:49:00.536Z,78.31
2022-09-15T05:51:29.641Z,78.38
2022-09-15T05:53:57.909Z,78.27
2022-09-15T05:56:26.185Z,78.33
2022-09-15T05:58:54.425Z,77.87
2022-09-15T06:01:24.439Z,78.03
2022-09-15T06:03:53.229Z,77.88
2022-09-15T06:06:22.142Z,77.70
2022-09-15T06:08:56.834Z,77.81
2022-09-15T06:11:27.604Z,77.69
2022-09-15T06:13:59.639Z,77.49
2022-09-15T06:16:28.490Z,77.65
2022-09-15T06:18:58.433Z,77.64
2022-09-15T06:21:29.299Z,77.72
2022-09-15T06:23:58.985Z,77.64
2022-09-15T06:26:29.785Z,77.25
2022-09-15T06:28:59.883Z,77.45
2022-09-15T06:31:31.099Z,77.09
2022-09-15T06:34:00.225Z,76.91
2022-09-15T06:36:29.678Z,76.46
2022-09-15T06:38:58.685Z,76.72
2022-09-15T06:41:31.118Z,76.29
2022-09-15T06:44:12.099Z,76.08
2022-09-15T06:46:40.391Z,75.77
2022-09-15T06:49:08.659Z,75.07
2022-09-15T06:51:36.846Z,74.80
2022-09-15T06:54:05.831Z,74.29
2022-09-15T06:56:37.904Z,73.72
2022-09-15T06:59:06.883Z,73.01
2022-09-15T07:01:41.348Z,72.62
2022-09-15T07:04:10.291Z,73.12
2022-09-15T07:06:39.485Z,71.93
2022-09-15T07:09:08.027Z,71.49
2022-09-15T07:11:36.371Z,71.82
2022-09-15T07:14:04.821Z,72.04
2022-09-15T07:16:33.320Z,71.88
2022-09-15T07:19:03.173Z,71.75
2022-09-15T07:21:31.525Z,71.23
2022-09-15T07:24:02.592Z,70.39
2022-09-15T07:26:33.719Z,70.24
2022-09-15T07:29:04.045Z,70.61
2022-09-15T07:31:34.457Z,70.48
2022-09-15T07:34:03.275Z,70.54
2022-09-15T07:36:31.900Z,70.20
2022-09-15T07:39:00.692Z,69.61
2022-09-15T07:41:30.882Z,69.17
2022-09-15T07:44:00.228Z,69.43
2022-09-15T07:46:31.888Z,68.53
2022-09-15T07:49:02.390Z,67.60
2022-09-15T07:51:30.913Z,67.17
2022-09-15T07:53:59.928Z,68.05
2022-09-15T07:56:28.243Z,66.84
2022-09-15T07:58:57.381Z,67.40
2022-09-15T08:01:25.972Z,68.18
2022-09-15T08:03:54.368Z,67.25
2022-09-15T08:06:24.835Z,68.20
2022-09-15T08:09:00.387Z,67.68
2022-09-15T08:11:30.172Z,66.67
2022-09-15T08:14:01.892Z,65.24
2022-09-15T08:16:30.280Z,64.96
2022-09-15T08:18:58.840Z,63.81
2022-09-15T08:21:28.784Z,65.01
2022-09-15T08:23:58.354Z,65.70
2022-09-15T08:26:28.256Z,65.50
2022-09-15T08:28:57.396Z,64.45
2022-09-15T08:31:25.942Z,63.71
2022-09-15T08:33:55.625Z,62.29
2022-09-15T08:36:27.365Z,60.79
2022-09-15T08:38:56.124Z,61.31
2022-09-15T08:41:26.341Z,59.87
2022-09-15T08:43:58.095Z,58.28
2022-09-15T08:46:29.436Z,58.83
2022-09-15T08:49:03.486Z,58.61
2022-09-15T08:51:37.409Z,55.41
2022-09-15T08:54:07.622Z,53.33
2022-09-15T08:56:36.815Z,55.32
2022-09-15T08:59:04.988Z,54.12
2022-09-15T09:01:40.991Z,53.10
2022-09-15T09:04:30.256Z,52.37
2022-09-15T09:07:08.877Z,51.83
2022-09-15T09:09:45.180Z,51.19
2022-09-15T09:12:48.816Z,50.98
2022-09-15T09:15:27.131Z,50.83
2022-09-15T09:18:18.860Z,51.65
2022-09-15T09:20:55.555Z,49.97
2022-09-15T09:23:26.566Z,50.44
2022-09-15T09:25:56.709Z,51.96
2022-09-15T09:28:31.870Z,52.88
2022-09-15T09:31:07.691Z,50.81
2022-09-15T09:33:47.256Z,46.66
2022-09-15T09:36:17.144Z,46.56
2022-09-15T09:38:46.686Z,46.25
2022-09-15T09:41:16.923Z,46.34
2022-09-15T09:43:47.773Z,47.27
2022-09-15T09:46:19.151Z,47.78
2022-09-15T09:48:52.647Z,46.54
2022-09-15T09:51:38.592Z,46.97
2022-09-15T09:54:14.971Z,46.63
2022-09-15T09:56:44.192Z,46.52
2022-09-15T09:59:32.385Z,46.22
2022-09-15T10:02:16.532Z,46.88
2022-09-15T10:04:47.537Z,46.60
2022-09-15T10:07:17.793Z,46.57
2022-09-15T10:09:53.724Z,44.43
2022-09-15T10:12:32.243Z,42.68
2022-09-15T10:15:02.917Z,42.66
2022-09-15T10:17:41.670Z,42.80
2022-09-15T10:20:25.071Z,43.16
2022-09-15T10:23:02.682Z,42.77
2022-09-15T10:25:55.076Z,43.49
2022-09-15T10:28:23.597Z,40.43
2022-09-15T10:31:10.834Z,41.22
2022-09-15T10:33:41.426Z,41.79
2022-09-15T10:36:14.133Z,41.52
2022-09-15T10:38:45.112Z,41.45
2022-09-15T10:41:21.884Z,41.19
2022-09-15T10:44:06.590Z,42.21
2022-09-15T10:46:43.558Z,44.27
2022-09-15T10:49:23.867Z,44.88
2022-09-15T10:52:00.145Z,44.70
2022-09-15T10:54:42.901Z,45.05
2022-09-15T10:57:21.984Z,43.63
2022-09-15T10:59:57.051Z,43.65
2022-09-15T11:02:49.725Z,43.69
2022-09-15T11:05:43.049Z,43.51
2022-09-15T11:08:33.575Z,44.09
2022-09-15T11:11:06.061Z,44.53
2022-09-15T11:13:45.594Z,45.27
2022-09-15T11:16:25.021Z,45.94
2022-09-15T11:19:03.020Z,46.51
2022-09-15T11:21:36.466Z,46.93
2022-09-15T11:24:30.959Z,47.13
2022-09-15T11:27:07.873Z,47.48
2022-09-15T11:29:52.637Z,48.14
2022-09-15T11:32:28.326Z,48.59
2022-09-15T11:35:02.676Z,48.84
2022-09-15T11:37:40.042Z,48.92
2022-09-15T11:40:17.081Z,48.97
2022-09-15T11:42:52.165Z,49.17
2022-09-15T11:45:26.208Z,49.70
2022-09-15T11:47:58.501Z,50.12
2022-09-15T11:50:35.365Z,50.29
2022-09-15T11:53:08.755Z,50.74
2022-09-15T11:55:40.529Z,50.48
2022-09-15T11:58:22.042Z,49.71
2022-09-15T12:00:56.519Z,49.83
2022-09-15T12:03:29.583Z,49.88
2022-09-15T12:06:03.938Z,50.02
2022-09-15T12:08:36.980Z,50.16
2022-09-15T12:11:10.467Z,50.83
2022-09-15T12:13:43.096Z,51.12
2022-09-15T12:16:12.425Z,51.71
2022-09-15T12:18:49.063Z,52.05
2022-09-15T12:21:23.395Z,52.30
2022-09-15T12:23:57.069Z,52.49
2022-09-15T12:26:27.449Z,52.53
2022-09-15T12:28:58.161Z,52.55
2022-09-15T12:31:37.386Z,52.42
2022-09-15T12:34:22.364Z,52.36
2022-09-15T12:36:51.904Z,52.48
2022-09-15T12:39:28.133Z,52.55
2022-09-15T12:42:05.427Z,52.72
2022-09-15T12:44:35.679Z,52.66
2022-09-15T12:47:06.634Z,52.69
2022-09-15T12:49:36.837Z,52.73
2022-09-15T12:52:07.467Z,53.12
2022-09-15T12:54:38.419Z,53.22
2022-09-15T12:57:08.143Z,52.89
2022-09-15T12:59:36.487Z,53.03
2022-09-15T13:02:44.331Z,52.98
2022-09-15T13:05:13.695Z,53.50
2022-09-15T13:07:56.926Z,53.52
2022-09-15T13:10:35.551Z,53.74
2022-09-15T13:13:31.183Z,53.91
2022-09-15T13:16:02.939Z,54.13
2022-09-15T13:18:31.816Z,53.81
2022-09-15T13:21:04.930Z,53.78
2022-09-15T13:23:38.280Z,54.11
2022-09-15T13:26:09.300Z,53.66
2022-09-15T13:28:38.321Z,53.59
2022-09-15T13:31:16.238Z,53.39
2022-09-15T13:40:12.499Z,52.82
2022-09-15T13:42:53.065Z,52.96
2022-09-15T13:45:44.113Z,53.27
2022-09-15T13:48:29.336Z,52.54
2022-09-15T13:50:59.907Z,52.86
2022-09-15T13:53:44.710Z,52.79
2022-09-15T13:56:16.322Z,53.23
2022-09-15T13:59:06.911Z,52.93
2022-09-15T14:01:35.641Z,53.41
2022-09-15T14:04:09.588Z,53.44
2022-09-15T14:06:39.826Z,53.28
2022-09-15T14:09:14.359Z,53.23
2022-09-15T14:11:44.242Z,53.59
2022-09-15T14:14:38.013Z,53.64
2022-09-15T14:17:16.257Z,53.57
2022-09-15T14:19:47.401Z,53.77
2022-09-15T14:22:27.593Z,54.04
2022-09-15T14:24:58.166Z,54.13
2022-09-15T14:27:29.276Z,54.11
2022-09-15T14:29:58.657Z,54.43
2022-09-15T14:32:33.979Z,54.61
2022-09-15T14:35:06.156Z,54.71
2022-09-15T14:37:35.337Z,54.79
2022-09-15T14:40:18.772Z,54.87
2022-09-15T14:42:47.542Z,54.72
2022-09-15T14:48:11.595Z,54.52
2022-09-15T14:50:40.572Z,54.48
2022-09-15T14:53:13.137Z,54.61
2022-09-15T14:55:49.146Z,54.68
2022-09-15T14:58:21.984Z,54.69
2022-09-15T15:00:55.137Z,54.64
2022-09-15T15:03:30.086Z,53.10
2022-09-15T15:06:25.415Z,50.64
2022-09-15T15:08:54.493Z,48.82
2022-09-15T15:11:23.063Z,48.45
2022-09-15T15:13:52.500Z,47.45
2022-09-15T15:16:24.016Z,47.85
2022-09-15T15:18:55.439Z,48.82
2022-09-15T15:21:40.966Z,49.50
2022-09-15T15:24:17.272Z,50.50
2022-09-15T15:26:46.908Z,51.39
2022-09-15T15:29:39.612Z,51.97
2022-09-15T15:32:12.404Z,52.56
2022-09-15T15:34:50.104Z,52.99
2022-09-15T15:37:26.120Z,52.91
2022-09-15T15:39:55.335Z,53.24
2022-09-15T15:42:24.432Z,53.81
2022-09-15T15:45:16.268Z,54.23
2022-09-15T15:47:44.529Z,54.61
2022-09-15T15:50:15.346Z,54.96
2022-09-15T15:52:44.412Z,55.24
2022-09-15T15:55:15.673Z,55.70
2022-09-15T15:57:46.948Z,56.24
2022-09-15T16:00:21.731Z,56.33
2022-09-15T16:02:51.418Z,56.63
2022-09-15T16:05:21.507Z,56.75
2022-09-15T16:07:51.076Z,57.00
2022-09-15T16:10:22.170Z,57.47
2022-09-15T16:12:50.696Z,57.67
2022-09-15T16:15:21.030Z,57.68
2022-09-15T16:17:49.701Z,57.92
2022-09-15T16:20:19.423Z,58.04
2022-09-15T16:22:47.587Z,58.30
2022-09-15T16:25:17.938Z,58.45
2022-09-15T16:27:46.903Z,58.81
2022-09-15T16:30:15.230Z,59.18
2022-09-15T16:32:43.944Z,59.22
2022-09-15T16:35:21.298Z,59.23
2022-09-15T16:37:49.762Z,59.33
2022-09-15T16:40:18.363Z,59.64
2022-09-15T16:42:47.693Z,59.87
2022-09-15T16:45:24.409Z,59.75
2022-09-15T16:47:52.741Z,59.89
2022-09-15T16:50:21.326Z,60.33
2022-09-15T16:52:51.313Z,60.41
2022-09-15T16:55:29.152Z,60.39
2022-09-15T16:57:59.344Z,60.50
2022-09-15T17:00:28.414Z,60.76
2022-09-15T17:02:57.024Z,60.66
2022-09-15T17:05:29.156Z,60.75
2022-09-15T17:07:57.609Z,60.88
2022-09-15T17:10:26.102Z,60.94
2022-09-15T17:12:54.515Z,61.23
2022-09-15T17:15:26.049Z,61.46
2022-09-15T17:17:55.350Z,61.54
2022-09-15T17:20:24.614Z,61.76
2022-09-15T17:22:54.547Z,62.07
2022-09-15T17:25:30.602Z,62.31
2022-09-15T17:27:59.719Z,62.70
2022-09-15T17:30:30.064Z,62.85
2022-09-15T17:33:02.895Z,63.00
2022-09-15T17:35:33.817Z,63.14
2022-09-15T17:38:02.996Z,63.42
2022-09-15T17:40:35.184Z,63.44
2022-09-15T17:43:04.141Z,63.56
2022-09-15T17:45:35.772Z,63.60
2022-09-15T17:48:05.706Z,63.94
2022-09-15T17:50:36.212Z,63.76
2022-09-15T17:53:09.622Z,64.05
2022-09-15T17:55:42.118Z,63.97
2022-09-15T17:58:11.111Z,64.04
2022-09-15T18:00:42.628Z,64.38
2022-09-15T18:03:21.206Z,64.58
2022-09-15T18:05:50.658Z,64.89
2022-09-15T18:08:19.908Z,64.97
2022-09-15T18:10:48.746Z,65.33
2022-09-15T18:13:20.939Z,65.41
2022-09-15T18:15:51.129Z,65.70
2022-09-15T18:18:21.315Z,65.53
2022-09-15T18:20:50.925Z,65.78
2022-09-15T18:23:21.226Z,65.78
2022-09-15T18:25:50.769Z,66.04
2022-09-15T18:28:20.212Z,66.17
2022-09-15T18:30:49.992Z,67.01
2022-09-15T18:33:20.833Z,66.53
2022-09-15T18:35:50.969Z,66.96
2022-09-15T18:38:19.947Z,66.87
2022-09-15T18:40:50.391Z,67.39
2022-09-15T18:43:21.394Z,67.29
2022-09-15T18:45:50.114Z,67.13
2022-09-15T18:48:21.404Z,67.36
2022-09-15T18:50:50.375Z,67.61
2022-09-15T18:53:19.056Z,68.09
2022-09-15T18:55:48.621Z,67.96
2022-09-15T18:58:18.845Z,68.37
2022-09-15T19:00:48.643Z,68.46
2022-09-15T19:03:17.041Z,68.47
2022-09-15T19:05:48.678Z,68.89
2022-09-15T19:08:19.334Z,68.77
2022-09-15T19:10:56.908Z,69.01
2022-09-15T19:13:28.548Z,69.21
2022-09-15T19:16:02.001Z,69.36
2022-09-15T19:18:30.737Z,69.36
2022-09-15T19:21:06.154Z,69.35
2022-09-15T19:23:35.481Z,69.20
2022-09-15T19:26:04.729Z,69.44
2022-09-15T19:28:33.152Z,69.35
2022-09-15T19:31:01.865Z,69.34
2022-09-15T19:33:31.653Z,69.81
2022-09-15T19:36:27.051Z,69.75
2022-09-15T19:38:51.674Z,69.74
2022-09-15T19:41:20.691Z,69.66
2022-09-15T19:43:49.353Z,69.75
2022-09-15T19:46:20.654Z,69.82
2022-09-15T19:48:50.251Z,69.97
2022-09-15T19:51:20.137Z,70.07
2022-09-15T19:53:48.401Z,69.63
2022-09-15T19:56:18.764Z,70.10
2022-09-15T19:58:47.405Z,70.15
2022-09-15T20:01:17.589Z,69.90
2022-09-15T20:06:33.562Z,70.10
2022-09-15T20:09:02.796Z,69.78
2022-09-15T20:11:32.870Z,69.87
2022-09-15T20:14:02.679Z,69.90
2022-09-15T20:16:33.044Z,69.95
2022-09-15T20:19:05.693Z,70.07
2022-09-15T20:21:49.675Z,70.26
2022-09-15T20:24:20.076Z,70.43
2022-09-15T20:26:49.802Z,70.28
2022-09-15T20:29:20.083Z,70.55
2022-09-15T20:31:49.385Z,70.48
2022-09-15T20:34:18.536Z,70.37
2022-09-15T20:36:47.398Z,70.51
2022-09-15T20:39:21.647Z,70.26
2022-09-15T20:41:51.740Z,70.48
2022-09-15T20:44:20.764Z,70.65
2022-09-15T20:46:49.703Z,70.82
2022-09-15T20:49:19.245Z,70.88
2022-09-15T20:51:51.928Z,70.60
2022-09-15T20:54:21.583Z,70.74
2022-09-15T20:56:51.302Z,70.89
2022-09-15T20:59:20.597Z,70.70
2022-09-15T21:01:49.790Z,70.48
2022-09-15T21:04:19.814Z,70.49
2022-09-15T21:06:49.174Z,70.47
2022-09-15T21:09:18.390Z,70.52
2022-09-15T21:11:52.746Z,70.14
2022-09-15T21:14:23.031Z,70.62
2022-09-15T21:16:53.443Z,70.55
2022-09-15T21:19:22.204Z,70.51
2022-09-15T21:21:51.343Z,70.60
2022-09-15T21:24:23.371Z,70.56
2022-09-15T21:27:13.234Z,70.79
2022-09-15T21:29:42.044Z,70.91
2022-09-15T21:32:10.800Z,70.81
2022-09-15T21:34:39.582Z,70.98
2022-09-15T21:37:09.341Z,71.20
2022-09-15T21:39:38.142Z,71.38
2022-09-15T21:42:07.408Z,71.18
2022-09-15T21:44:36.548Z,71.29
2022-09-15T21:47:05.661Z,71.35
2022-09-15T21:49:34.392Z,71.39
2022-09-15T21:52:03.675Z,71.79
2022-09-15T21:54:32.377Z,72.05
2022-09-15T21:57:01.066Z,71.98
2022-09-15T21:59:30.053Z,71.88
2022-09-15T22:01:59.007Z,71.89
2022-09-15T22:04:27.740Z,71.87
2022-09-15T22:06:56.574Z,71.91
2022-09-15T22:09:26.552Z,71.95
2022-09-15T22:11:56.922Z,72.12
2022-09-15T22:14:26.080Z,72.12
2022-09-15T22:16:55.476Z,72.24
2022-09-15T22:19:24.292Z,72.49
2022-09-15T22:21:53.225Z,72.32
2022-09-15T22:24:22.351Z,72.24
2022-09-15T22:26:51.253Z,72.46
2022-09-15T22:29:20.264Z,72.64
2022-09-15T22:31:49.114Z,72.66
2022-09-15T22:34:18.070Z,72.50
2022-09-15T22:36:47.974Z,72.75
2022-09-15T22:39:16.976Z,72.48
2022-09-15T22:41:46.224Z,72.25
2022-09-15T22:44:19.538Z,72.25
2022-09-15T22:46:49.475Z,72.32
2022-09-15T22:49:18.658Z,72.50
2022-09-15T22:51:47.642Z,72.58
2022-09-15T22:54:17.095Z,72.68
2022-09-15T22:56:47.477Z,72.85
2022-09-15T22:59:16.652Z,72.90
2022-09-15T23:01:45.934Z,73.34
2022-09-15T23:04:14.329Z,73.48
2022-09-15T23:06:42.640Z,73.83
2022-09-15T23:09:11.355Z,73.78
2022-09-15T23:11:40.800Z,73.84
2022-09-15T23:14:14.918Z,73.90
2022-09-15T23:16:43.638Z,74.18
2022-09-15T23:19:13.245Z,74.03
2022-09-15T23:21:41.829Z,74.22
2022-09-15T23:24:11.733Z,74.62
2022-09-15T23:26:40.331Z,74.88
2022-09-15T23:29:09.714Z,75.23
2022-09-15T23:31:38.284Z,75.34
2022-09-15T23:34:06.916Z,75.75
2022-09-15T23:36:35.318Z,75.61
2022-09-15T23:39:03.700Z,75.90
2022-09-15T23:41:32.066Z,75.91
2022-09-15T23:44:00.805Z,75.93
2022-09-15T23:46:29.429Z,75.89
2022-09-15T23:48:58.000Z,75.99
2022-09-15T23:51:26.546Z,76.45
2022-09-15T23:53:54.826Z,76.77
2022-09-15T23:56:23.204Z,76.93
2022-09-15T23:58:51.744Z,77.29
